sensor_id;sensor_type;location;lat;lon;timestamp;temperature;humidity
37052;DHT22;22964;52.272;13.356;2024-02-26T00:01:43;6.20;60.00
37052;DHT22;22964;52.272;13.356;2024-02-26T00:04:12;6.30;60.10
37052;DHT22;22964;52.272;13.356;2024-02-26T00:06:38;6.20;60.10
37052;DHT22;22964;52.272;13.356;2024-02-26T00:09:07;6.20;60.20
37052;DHT22;22964;52.272;13.356;2024-02-26T00:11:33;6.20;60.30
37052;DHT22;22964;52.272;13.356;2024-02-26T00:13:58;6.20;60.50
37052;DHT22;22964;52.272;13.356;2024-02-26T00:16:24;6.20;60.70
37052;DHT22;22964;52.272;13.356;2024-02-26T00:18:50;6.20;60.80
37052;DHT22;22964;52.272;13.356;2024-02-26T00:21:16;6.20;61.00
37052;DHT22;22964;52.272;13.356;2024-02-26T00:23:42;6.20;61.00
37052;DHT22;22964;52.272;13.356;2024-02-26T00:26:07;6.20;61.10
37052;DHT22;22964;52.272;13.356;2024-02-26T00:28:33;6.20;61.10
37052;DHT22;22964;52.272;13.356;2024-02-26T00:30:59;6.20;61.10
37052;DHT22;22964;52.272;13.356;2024-02-26T00:33:25;6.20;61.10
37052;DHT22;22964;52.272;13.356;2024-02-26T00:35:51;6.10;61.10
37052;DHT22;22964;52.272;13.356;2024-02-26T00:38:17;6.10;61.20
37052;DHT22;22964;52.272;13.356;2024-02-26T00:40:42;6.10;61.10
37052;DHT22;22964;52.272;13.356;2024-02-26T00:43:08;6.10;61.00
37052;DHT22;22964;52.272;13.356;2024-02-26T00:45:34;6.10;60.90
37052;DHT22;22964;52.272;13.356;2024-02-26T00:48:00;6.10;60.90
37052;DHT22;22964;52.272;13.356;2024-02-26T00:50:39;6.10;60.90
37052;DHT22;22964;52.272;13.356;2024-02-26T00:53:05;6.00;60.80
37052;DHT22;22964;52.272;13.356;2024-02-26T00:55:31;6.00;60.60
37052;DHT22;22964;52.272;13.356;2024-02-26T00:57:57;5.90;60.60
37052;DHT22;22964;52.272;13.356;2024-02-26T01:00:22;5.90;60.60
37052;DHT22;22964;52.272;13.356;2024-02-26T01:02:48;5.90;60.50
37052;DHT22;22964;52.272;13.356;2024-02-26T01:05:14;5.90;60.70
37052;DHT22;22964;52.272;13.356;2024-02-26T01:07:42;5.80;60.80
37052;DHT22;22964;52.272;13.356;2024-02-26T01:10:08;5.80;60.80
37052;DHT22;22964;52.272;13.356;2024-02-26T01:12:34;5.80;60.80
37052;DHT22;22964;52.272;13.356;2024-02-26T01:15:04;5.80;60.90
37052;DHT22;22964;52.272;13.356;2024-02-26T01:17:30;5.80;61.10
37052;DHT22;22964;52.272;13.356;2024-02-26T01:19:55;5.70;60.90
37052;DHT22;22964;52.272;13.356;2024-02-26T01:22:22;5.70;60.80
37052;DHT22;22964;52.272;13.356;2024-02-26T01:24:48;5.70;60.70
37052;DHT22;22964;52.272;13.356;2024-02-26T01:27:14;5.70;60.70
37052;DHT22;22964;52.272;13.356;2024-02-26T01:29:41;5.60;60.70
37052;DHT22;22964;52.272;13.356;2024-02-26T01:32:07;5.60;60.60
37052;DHT22;22964;52.272;13.356;2024-02-26T01:34:33;5.50;60.50
37052;DHT22;22964;52.272;13.356;2024-02-26T01:37:00;5.60;60.60
37052;DHT22;22964;52.272;13.356;2024-02-26T01:39:26;5.50;60.50
37052;DHT22;22964;52.272;13.356;2024-02-26T01:41:54;5.50;60.70
37052;DHT22;22964;52.272;13.356;2024-02-26T01:44:20;5.40;60.70
37052;DHT22;22964;52.272;13.356;2024-02-26T01:46:47;5.40;60.80
37052;DHT22;22964;52.272;13.356;2024-02-26T01:49:13;5.40;61.00
37052;DHT22;22964;52.272;13.356;2024-02-26T01:51:41;5.30;61.10
37052;DHT22;22964;52.272;13.356;2024-02-26T01:54:09;5.30;61.30
37052;DHT22;22964;52.272;13.356;2024-02-26T01:56:36;5.40;61.40
37052;DHT22;22964;52.272;13.356;2024-02-26T01:59:02;5.30;61.50
37052;DHT22;22964;52.272;13.356;2024-02-26T02:01:29;5.30;61.60
37052;DHT22;22964;52.272;13.356;2024-02-26T02:03:58;5.30;61.60
37052;DHT22;22964;52.272;13.356;2024-02-26T02:06:24;5.30;61.60
37052;DHT22;22964;52.272;13.356;2024-02-26T02:08:50;5.30;61.40
37052;DHT22;22964;52.272;13.356;2024-02-26T02:11:17;5.20;61.30
37052;DHT22;22964;52.272;13.356;2024-02-26T02:13:43;5.20;61.40
37052;DHT22;22964;52.272;13.356;2024-02-26T02:16:09;5.20;61.30
37052;DHT22;22964;52.272;13.356;2024-02-26T02:18:34;5.10;61.30
37052;DHT22;22964;52.272;13.356;2024-02-26T02:21:01;5.10;61.50
37052;DHT22;22964;52.272;13.356;2024-02-26T02:23:27;5.10;61.50
37052;DHT22;22964;52.272;13.356;2024-02-26T02:25:53;5.10;61.60
37052;DHT22;22964;52.272;13.356;2024-02-26T02:28:21;5.10;61.70
37052;DHT22;22964;52.272;13.356;2024-02-26T02:30:47;5.10;62.70
37052;DHT22;22964;52.272;13.356;2024-02-26T02:33:15;5.10;61.90
37052;DHT22;22964;52.272;13.356;2024-02-26T02:35:41;5.10;62.10
37052;DHT22;22964;52.272;13.356;2024-02-26T02:38:07;5.00;61.90
37052;DHT22;22964;52.272;13.356;2024-02-26T02:40:33;5.00;62.00
37052;DHT22;22964;52.272;13.356;2024-02-26T02:42:59;5.00;62.30
37052;DHT22;22964;52.272;13.356;2024-02-26T02:45:25;5.00;63.20
37052;DHT22;22964;52.272;13.356;2024-02-26T02:47:51;5.00;62.60
37052;DHT22;22964;52.272;13.356;2024-02-26T02:50:17;5.00;62.70
37052;DHT22;22964;52.272;13.356;2024-02-26T02:52:43;5.00;62.90
37052;DHT22;22964;52.272;13.356;2024-02-26T02:55:09;5.00;62.80
37052;DHT22;22964;52.272;13.356;2024-02-26T02:57:34;5.00;62.90
37052;DHT22;22964;52.272;13.356;2024-02-26T03:00:07;5.00;62.90
37052;DHT22;22964;52.272;13.356;2024-02-26T03:02:33;5.00;62.90
37052;DHT22;22964;52.272;13.356;2024-02-26T03:05:04;5.00;62.90
37052;DHT22;22964;52.272;13.356;2024-02-26T03:07:30;5.00;62.90
37052;DHT22;22964;52.272;13.356;2024-02-26T03:09:56;5.00;62.90
37052;DHT22;22964;52.272;13.356;2024-02-26T03:12:22;5.00;63.00
37052;DHT22;22964;52.272;13.356;2024-02-26T03:14:48;5.00;63.00
37052;DHT22;22964;52.272;13.356;2024-02-26T03:17:14;5.00;63.30
37052;DHT22;22964;52.272;13.356;2024-02-26T03:19:39;5.00;63.40
37052;DHT22;22964;52.272;13.356;2024-02-26T03:22:05;5.00;63.50
37052;DHT22;22964;52.272;13.356;2024-02-26T03:24:31;5.00;63.50
37052;DHT22;22964;52.272;13.356;2024-02-26T03:26:56;4.90;63.60
37052;DHT22;22964;52.272;13.356;2024-02-26T03:29:22;5.00;63.80
37052;DHT22;22964;52.272;13.356;2024-02-26T03:31:48;5.00;64.00
37052;DHT22;22964;52.272;13.356;2024-02-26T03:34:14;5.00;64.00
37052;DHT22;22964;52.272;13.356;2024-02-26T03:36:41;5.00;64.10
37052;DHT22;22964;52.272;13.356;2024-02-26T03:39:07;5.00;64.20
37052;DHT22;22964;52.272;13.356;2024-02-26T03:41:34;5.00;64.30
37052;DHT22;22964;52.272;13.356;2024-02-26T03:44:00;5.10;64.40
37052;DHT22;22964;52.272;13.356;2024-02-26T03:46:26;5.10;64.50
37052;DHT22;22964;52.272;13.356;2024-02-26T03:48:52;5.10;64.60
37052;DHT22;22964;52.272;13.356;2024-02-26T03:51:18;5.10;64.60
37052;DHT22;22964;52.272;13.356;2024-02-26T03:53:43;5.10;64.70
37052;DHT22;22964;52.272;13.356;2024-02-26T03:56:11;5.10;64.80
37052;DHT22;22964;52.272;13.356;2024-02-26T03:58:37;5.00;64.80
37052;DHT22;22964;52.272;13.356;2024-02-26T04:01:02;5.10;64.80
37052;DHT22;22964;52.272;13.356;2024-02-26T04:03:28;5.10;64.70
37052;DHT22;22964;52.272;13.356;2024-02-26T04:05:54;5.10;64.70
37052;DHT22;22964;52.272;13.356;2024-02-26T04:08:20;5.10;64.60
37052;DHT22;22964;52.272;13.356;2024-02-26T04:10:45;5.10;64.40
37052;DHT22;22964;52.272;13.356;2024-02-26T04:13:11;5.10;64.40
37052;DHT22;22964;52.272;13.356;2024-02-26T04:15:37;5.10;64.30
37052;DHT22;22964;52.272;13.356;2024-02-26T04:18:03;5.00;64.20
37052;DHT22;22964;52.272;13.356;2024-02-26T04:20:28;5.10;64.30
37052;DHT22;22964;52.272;13.356;2024-02-26T04:22:54;5.00;64.00
37052;DHT22;22964;52.272;13.356;2024-02-26T04:25:20;5.00;64.00
37052;DHT22;22964;52.272;13.356;2024-02-26T04:27:45;5.00;63.90
37052;DHT22;22964;52.272;13.356;2024-02-26T04:30:11;5.00;64.00
37052;DHT22;22964;52.272;13.356;2024-02-26T04:32:37;4.90;64.00
37052;DHT22;22964;52.272;13.356;2024-02-26T04:35:03;4.90;64.00
37052;DHT22;22964;52.272;13.356;2024-02-26T04:37:29;4.90;64.00
37052;DHT22;22964;52.272;13.356;2024-02-26T04:40:00;4.90;64.00
37052;DHT22;22964;52.272;13.356;2024-02-26T04:42:27;4.90;64.20
37052;DHT22;22964;52.272;13.356;2024-02-26T04:44:53;4.90;64.10
37052;DHT22;22964;52.272;13.356;2024-02-26T04:47:19;4.90;64.20
37052;DHT22;22964;52.272;13.356;2024-02-26T04:49:45;4.90;64.20
37052;DHT22;22964;52.272;13.356;2024-02-26T04:52:11;4.90;64.20
37052;DHT22;22964;52.272;13.356;2024-02-26T04:54:37;4.90;64.00
37052;DHT22;22964;52.272;13.356;2024-02-26T04:57:03;4.90;64.10
37052;DHT22;22964;52.272;13.356;2024-02-26T04:59:29;4.90;64.20
37052;DHT22;22964;52.272;13.356;2024-02-26T05:01:54;4.90;64.30
37052;DHT22;22964;52.272;13.356;2024-02-26T05:04:20;4.90;64.50
37052;DHT22;22964;52.272;13.356;2024-02-26T05:06:46;4.90;64.50
37052;DHT22;22964;52.272;13.356;2024-02-26T05:09:11;4.80;64.50
37052;DHT22;22964;52.272;13.356;2024-02-26T05:11:37;4.80;64.50
37052;DHT22;22964;52.272;13.356;2024-02-26T05:14:03;4.80;64.40
37052;DHT22;22964;52.272;13.356;2024-02-26T05:16:29;4.80;64.50
37052;DHT22;22964;52.272;13.356;2024-02-26T05:18:56;4.80;64.50
37052;DHT22;22964;52.272;13.356;2024-02-26T05:21:22;4.80;64.50
37052;DHT22;22964;52.272;13.356;2024-02-26T05:23:48;4.80;64.50
37052;DHT22;22964;52.272;13.356;2024-02-26T05:26:21;4.80;64.40
37052;DHT22;22964;52.272;13.356;2024-02-26T05:28:47;4.80;64.70
37052;DHT22;22964;52.272;13.356;2024-02-26T05:31:13;4.80;64.40
37052;DHT22;22964;52.272;13.356;2024-02-26T05:33:39;4.80;64.40
37052;DHT22;22964;52.272;13.356;2024-02-26T05:36:06;4.80;64.50
37052;DHT22;22964;52.272;13.356;2024-02-26T05:38:32;4.80;64.50
37052;DHT22;22964;52.272;13.356;2024-02-26T05:41:00;4.80;64.50
37052;DHT22;22964;52.272;13.356;2024-02-26T05:43:27;4.80;64.70
37052;DHT22;22964;52.272;13.356;2024-02-26T05:45:53;4.80;64.60
37052;DHT22;22964;52.272;13.356;2024-02-26T05:48:19;4.70;64.50
37052;DHT22;22964;52.272;13.356;2024-02-26T05:50:48;4.70;64.60
37052;DHT22;22964;52.272;13.356;2024-02-26T05:53:14;4.70;64.70
37052;DHT22;22964;52.272;13.356;2024-02-26T05:55:40;4.70;64.60
37052;DHT22;22964;52.272;13.356;2024-02-26T05:58:05;4.70;64.60
37052;DHT22;22964;52.272;13.356;2024-02-26T06:00:31;4.70;64.70
37052;DHT22;22964;52.272;13.356;2024-02-26T06:02:57;4.70;64.80
37052;DHT22;22964;52.272;13.356;2024-02-26T06:05:23;4.70;64.90
37052;DHT22;22964;52.272;13.356;2024-02-26T06:07:49;4.60;65.00
37052;DHT22;22964;52.272;13.356;2024-02-26T06:10:14;4.70;65.20
37052;DHT22;22964;52.272;13.356;2024-02-26T06:12:40;4.70;65.40
37052;DHT22;22964;52.272;13.356;2024-02-26T06:15:06;4.70;65.60
37052;DHT22;22964;52.272;13.356;2024-02-26T06:17:32;4.70;65.70
37052;DHT22;22964;52.272;13.356;2024-02-26T06:19:59;4.70;65.80
37052;DHT22;22964;52.272;13.356;2024-02-26T06:22:25;4.70;65.80
37052;DHT22;22964;52.272;13.356;2024-02-26T06:24:51;4.70;66.00
37052;DHT22;22964;52.272;13.356;2024-02-26T06:27:17;4.80;66.10
37052;DHT22;22964;52.272;13.356;2024-02-26T06:29:42;4.80;66.10
37052;DHT22;22964;52.272;13.356;2024-02-26T06:32:08;4.80;66.10
37052;DHT22;22964;52.272;13.356;2024-02-26T06:34:34;4.90;66.30
37052;DHT22;22964;52.272;13.356;2024-02-26T06:36:59;4.80;66.50
37052;DHT22;22964;52.272;13.356;2024-02-26T06:39:25;4.90;67.00
37052;DHT22;22964;52.272;13.356;2024-02-26T06:41:52;5.00;67.30
37052;DHT22;22964;52.272;13.356;2024-02-26T06:44:23;5.00;67.70
37052;DHT22;22964;52.272;13.356;2024-02-26T06:46:50;5.10;67.90
37052;DHT22;22964;52.272;13.356;2024-02-26T06:49:15;5.10;68.00
37052;DHT22;22964;52.272;13.356;2024-02-26T06:51:41;5.20;68.30
37052;DHT22;22964;52.272;13.356;2024-02-26T06:54:07;5.20;68.10
37052;DHT22;22964;52.272;13.356;2024-02-26T06:56:32;5.30;68.30
37052;DHT22;22964;52.272;13.356;2024-02-26T06:58:58;5.40;68.40
37052;DHT22;22964;52.272;13.356;2024-02-26T07:01:24;5.40;68.40
37052;DHT22;22964;52.272;13.356;2024-02-26T07:03:49;5.50;68.50
37052;DHT22;22964;52.272;13.356;2024-02-26T07:06:15;5.50;68.60
37052;DHT22;22964;52.272;13.356;2024-02-26T07:08:41;5.60;68.70
37052;DHT22;22964;52.272;13.356;2024-02-26T07:11:10;5.60;68.70
37052;DHT22;22964;52.272;13.356;2024-02-26T07:13:36;5.70;69.00
37052;DHT22;22964;52.272;13.356;2024-02-26T07:16:02;5.80;69.00
37052;DHT22;22964;52.272;13.356;2024-02-26T07:18:28;5.80;68.90
37052;DHT22;22964;52.272;13.356;2024-02-26T07:20:54;5.80;68.90
37052;DHT22;22964;52.272;13.356;2024-02-26T07:23:19;5.90;68.90
37052;DHT22;22964;52.272;13.356;2024-02-26T07:25:45;6.00;68.90
37052;DHT22;22964;52.272;13.356;2024-02-26T07:28:12;6.00;68.80
37052;DHT22;22964;52.272;13.356;2024-02-26T07:30:38;6.10;68.80
37052;DHT22;22964;52.272;13.356;2024-02-26T07:33:03;6.10;68.80
37052;DHT22;22964;52.272;13.356;2024-02-26T07:35:29;6.20;68.90
37052;DHT22;22964;52.272;13.356;2024-02-26T07:37:55;6.20;68.70
37052;DHT22;22964;52.272;13.356;2024-02-26T07:40:21;6.30;69.00
37052;DHT22;22964;52.272;13.356;2024-02-26T07:42:46;6.30;68.80
37052;DHT22;22964;52.272;13.356;2024-02-26T07:45:12;6.30;69.00
37052;DHT22;22964;52.272;13.356;2024-02-26T07:47:38;6.40;68.90
37052;DHT22;22964;52.272;13.356;2024-02-26T07:50:10;6.40;69.00
37052;DHT22;22964;52.272;13.356;2024-02-26T07:52:37;6.50;69.20
37052;DHT22;22964;52.272;13.356;2024-02-26T07:55:04;6.50;69.20
37052;DHT22;22964;52.272;13.356;2024-02-26T07:57:31;6.50;69.30
37052;DHT22;22964;52.272;13.356;2024-02-26T07:59:56;6.70;69.70
37052;DHT22;22964;52.272;13.356;2024-02-26T08:02:22;6.70;70.00
37052;DHT22;22964;52.272;13.356;2024-02-26T08:04:48;6.80;70.20
37052;DHT22;22964;52.272;13.356;2024-02-26T08:07:13;6.80;70.40
37052;DHT22;22964;52.272;13.356;2024-02-26T08:09:39;6.90;70.60
37052;DHT22;22964;52.272;13.356;2024-02-26T08:12:05;7.00;70.60
37052;DHT22;22964;52.272;13.356;2024-02-26T08:14:31;7.10;70.70
37052;DHT22;22964;52.272;13.356;2024-02-26T08:16:58;7.20;70.70
37052;DHT22;22964;52.272;13.356;2024-02-26T08:19:24;7.30;71.70
37052;DHT22;22964;52.272;13.356;2024-02-26T08:21:50;7.40;71.10
37052;DHT22;22964;52.272;13.356;2024-02-26T08:24:17;7.50;71.10
37052;DHT22;22964;52.272;13.356;2024-02-26T08:26:42;7.50;71.10
37052;DHT22;22964;52.272;13.356;2024-02-26T08:29:08;7.70;71.20
37052;DHT22;22964;52.272;13.356;2024-02-26T08:31:34;7.70;71.30
37052;DHT22;22964;52.272;13.356;2024-02-26T08:34:05;7.90;71.40
37052;DHT22;22964;52.272;13.356;2024-02-26T08:36:33;8.00;71.40
37052;DHT22;22964;52.272;13.356;2024-02-26T08:38:59;8.10;72.40
37052;DHT22;22964;52.272;13.356;2024-02-26T08:41:25;8.30;71.60
37052;DHT22;22964;52.272;13.356;2024-02-26T08:43:51;8.40;71.60
37052;DHT22;22964;52.272;13.356;2024-02-26T08:46:16;8.50;71.70
37052;DHT22;22964;52.272;13.356;2024-02-26T08:48:42;8.70;71.90
37052;DHT22;22964;52.272;13.356;2024-02-26T08:51:08;8.80;71.90
37052;DHT22;22964;52.272;13.356;2024-02-26T08:53:35;8.90;71.90
37052;DHT22;22964;52.272;13.356;2024-02-26T08:56:01;9.00;71.50
37052;DHT22;22964;52.272;13.356;2024-02-26T08:58:30;9.10;71.00
37052;DHT22;22964;52.272;13.356;2024-02-26T09:00:56;9.20;71.80
37052;DHT22;22964;52.272;13.356;2024-02-26T09:03:22;9.30;70.40
37052;DHT22;22964;52.272;13.356;2024-02-26T09:05:48;9.30;70.10
37052;DHT22;22964;52.272;13.356;2024-02-26T09:08:14;9.40;70.30
37052;DHT22;22964;52.272;13.356;2024-02-26T09:10:40;9.50;70.00
37052;DHT22;22964;52.272;13.356;2024-02-26T09:13:06;9.60;70.20
37052;DHT22;22964;52.272;13.356;2024-02-26T09:15:32;9.70;70.40
37052;DHT22;22964;52.272;13.356;2024-02-26T09:17:58;9.80;70.60
37052;DHT22;22964;52.272;13.356;2024-02-26T09:20:23;9.90;70.70
37052;DHT22;22964;52.272;13.356;2024-02-26T09:22:50;10.00;70.90
37052;DHT22;22964;52.272;13.356;2024-02-26T09:25:17;10.10;71.00
37052;DHT22;22964;52.272;13.356;2024-02-26T09:27:46;10.30;71.30
37052;DHT22;22964;52.272;13.356;2024-02-26T09:30:13;10.40;71.70
37052;DHT22;22964;52.272;13.356;2024-02-26T09:32:39;10.50;71.30
37052;DHT22;22964;52.272;13.356;2024-02-26T09:35:06;10.70;71.20
37052;DHT22;22964;52.272;13.356;2024-02-26T09:37:32;10.80;70.80
37052;DHT22;22964;52.272;13.356;2024-02-26T09:39:59;11.00;70.40
37052;DHT22;22964;52.272;13.356;2024-02-26T09:42:31;11.10;70.10
37052;DHT22;22964;52.272;13.356;2024-02-26T09:45:00;11.20;70.00
37052;DHT22;22964;52.272;13.356;2024-02-26T09:47:31;11.40;70.40
37052;DHT22;22964;52.272;13.356;2024-02-26T09:49:57;11.50;69.20
37052;DHT22;22964;52.272;13.356;2024-02-26T09:52:25;11.60;68.80
37052;DHT22;22964;52.272;13.356;2024-02-26T09:54:51;11.70;68.50
37052;DHT22;22964;52.272;13.356;2024-02-26T09:57:17;11.80;68.30
37052;DHT22;22964;52.272;13.356;2024-02-26T09:59:44;11.90;68.30
37052;DHT22;22964;52.272;13.356;2024-02-26T10:02:12;12.00;68.30
37052;DHT22;22964;52.272;13.356;2024-02-26T10:04:42;12.10;68.20
37052;DHT22;22964;52.272;13.356;2024-02-26T10:07:12;12.20;68.40
37052;DHT22;22964;52.272;13.356;2024-02-26T10:09:39;12.30;68.40
37052;DHT22;22964;52.272;13.356;2024-02-26T10:12:05;12.30;68.30
37052;DHT22;22964;52.272;13.356;2024-02-26T10:14:32;12.50;68.50
37052;DHT22;22964;52.272;13.356;2024-02-26T10:16:59;12.60;68.30
37052;DHT22;22964;52.272;13.356;2024-02-26T10:19:28;12.70;68.10
37052;DHT22;22964;52.272;13.356;2024-02-26T10:21:57;12.90;67.90
37052;DHT22;22964;52.272;13.356;2024-02-26T10:24:24;13.00;67.60
37052;DHT22;22964;52.272;13.356;2024-02-26T10:26:52;13.10;67.40
37052;DHT22;22964;52.272;13.356;2024-02-26T10:29:21;13.20;67.20
37052;DHT22;22964;52.272;13.356;2024-02-26T10:31:47;13.30;67.10
37052;DHT22;22964;52.272;13.356;2024-02-26T10:34:14;13.40;66.70
37052;DHT22;22964;52.272;13.356;2024-02-26T10:36:40;13.60;66.40
37052;DHT22;22964;52.272;13.356;2024-02-26T10:39:07;13.70;66.20
37052;DHT22;22964;52.272;13.356;2024-02-26T10:41:35;13.80;65.90
37052;DHT22;22964;52.272;13.356;2024-02-26T10:44:01;13.90;65.70
37052;DHT22;22964;52.272;13.356;2024-02-26T10:46:29;14.00;65.60
37052;DHT22;22964;52.272;13.356;2024-02-26T10:48:56;14.10;65.50
37052;DHT22;22964;52.272;13.356;2024-02-26T10:51:29;14.20;65.90
37052;DHT22;22964;52.272;13.356;2024-02-26T10:53:56;14.30;64.60
37052;DHT22;22964;52.272;13.356;2024-02-26T10:56:28;14.50;64.30
37052;DHT22;22964;52.272;13.356;2024-02-26T10:58:57;14.50;63.70
37052;DHT22;22964;52.272;13.356;2024-02-26T11:01:24;14.70;63.70
37052;DHT22;22964;52.272;13.356;2024-02-26T11:03:52;14.80;63.50
37052;DHT22;22964;52.272;13.356;2024-02-26T11:06:27;14.80;64.00
37052;DHT22;22964;52.272;13.356;2024-02-26T11:08:54;14.90;62.50
37052;DHT22;22964;52.272;13.356;2024-02-26T11:11:23;15.00;62.70
37052;DHT22;22964;52.272;13.356;2024-02-26T11:13:51;15.10;62.30
37052;DHT22;22964;52.272;13.356;2024-02-26T11:16:18;15.20;62.30
37052;DHT22;22964;52.272;13.356;2024-02-26T11:18:46;15.30;62.10
37052;DHT22;22964;52.272;13.356;2024-02-26T11:21:15;15.30;61.80
37052;DHT22;22964;52.272;13.356;2024-02-26T11:23:42;15.50;61.80
37052;DHT22;22964;52.272;13.356;2024-02-26T11:26:10;15.50;61.60
37052;DHT22;22964;52.272;13.356;2024-02-26T11:28:37;15.60;61.10
37052;DHT22;22964;52.272;13.356;2024-02-26T11:31:04;15.70;60.90
37052;DHT22;22964;52.272;13.356;2024-02-26T11:33:31;15.80;60.50
37052;DHT22;22964;52.272;13.356;2024-02-26T11:35:57;15.80;60.30
37052;DHT22;22964;52.272;13.356;2024-02-26T11:38:26;15.90;60.00
37052;DHT22;22964;52.272;13.356;2024-02-26T11:40:53;16.00;59.90
37052;DHT22;22964;52.272;13.356;2024-02-26T11:44:08;16.00;59.80
37052;DHT22;22964;52.272;13.356;2024-02-26T11:46:25;16.00;59.40
37052;DHT22;22964;52.272;13.356;2024-02-26T11:48:54;16.10;59.00
37052;DHT22;22964;52.272;13.356;2024-02-26T11:51:25;16.10;59.40
37052;DHT22;22964;52.272;13.356;2024-02-26T11:53:51;16.20;58.90
37052;DHT22;22964;52.272;13.356;2024-02-26T11:58:42;16.30;59.10
37052;DHT22;22964;52.272;13.356;2024-02-26T12:01:46;16.30;58.90
37052;DHT22;22964;52.272;13.356;2024-02-26T12:04:23;16.40;58.00
37052;DHT22;22964;52.272;13.356;2024-02-26T12:06:52;16.50;58.10
37052;DHT22;22964;52.272;13.356;2024-02-26T12:09:38;16.50;58.30
37052;DHT22;22964;52.272;13.356;2024-02-26T12:12:08;16.60;57.50
37052;DHT22;22964;52.272;13.356;2024-02-26T12:14:50;16.60;57.90
37052;DHT22;22964;52.272;13.356;2024-02-26T12:17:20;16.60;57.60
37052;DHT22;22964;52.272;13.356;2024-02-26T12:19:46;16.60;57.20
37052;DHT22;22964;52.272;13.356;2024-02-26T12:22:15;16.60;57.20
37052;DHT22;22964;52.272;13.356;2024-02-26T12:24:45;16.60;56.60
37052;DHT22;22964;52.272;13.356;2024-02-26T12:27:11;16.60;57.40
37052;DHT22;22964;52.272;13.356;2024-02-26T12:29:36;16.60;56.60
37052;DHT22;22964;52.272;13.356;2024-02-26T12:32:05;16.60;56.40
37052;DHT22;22964;52.272;13.356;2024-02-26T12:34:31;16.50;56.10
37052;DHT22;22964;52.272;13.356;2024-02-26T12:36:58;16.50;56.10
37052;DHT22;22964;52.272;13.356;2024-02-26T12:39:24;16.40;55.90
37052;DHT22;22964;52.272;13.356;2024-02-26T12:41:50;16.40;55.90
37052;DHT22;22964;52.272;13.356;2024-02-26T12:44:16;16.30;56.10
37052;DHT22;22964;52.272;13.356;2024-02-26T12:46:42;16.30;56.00
37052;DHT22;22964;52.272;13.356;2024-02-26T12:49:08;16.20;56.30
37052;DHT22;22964;52.272;13.356;2024-02-26T12:51:34;16.20;56.40
37052;DHT22;22964;52.272;13.356;2024-02-26T12:54:00;16.20;56.50
37052;DHT22;22964;52.272;13.356;2024-02-26T12:56:27;16.20;56.30
37052;DHT22;22964;52.272;13.356;2024-02-26T12:58:54;16.20;56.20
37052;DHT22;22964;52.272;13.356;2024-02-26T13:01:23;16.30;56.20
37052;DHT22;22964;52.272;13.356;2024-02-26T13:03:50;16.30;56.20
37052;DHT22;22964;52.272;13.356;2024-02-26T13:06:17;16.20;56.20
37052;DHT22;22964;52.272;13.356;2024-02-26T13:08:44;16.20;56.20
37052;DHT22;22964;52.272;13.356;2024-02-26T13:11:10;16.20;56.30
37052;DHT22;22964;52.272;13.356;2024-02-26T13:13:36;16.20;56.40
37052;DHT22;22964;52.272;13.356;2024-02-26T13:16:07;16.20;56.30
37052;DHT22;22964;52.272;13.356;2024-02-26T13:18:34;16.20;56.40
37052;DHT22;22964;52.272;13.356;2024-02-26T13:21:12;16.20;56.30
37052;DHT22;22964;52.272;13.356;2024-02-26T13:23:41;16.20;55.90
37052;DHT22;22964;52.272;13.356;2024-02-26T13:26:08;16.20;56.20
37052;DHT22;22964;52.272;13.356;2024-02-26T13:28:37;16.20;56.20
37052;DHT22;22964;52.272;13.356;2024-02-26T13:31:03;16.20;56.30
37052;DHT22;22964;52.272;13.356;2024-02-26T13:33:31;16.20;56.00
37052;DHT22;22964;52.272;13.356;2024-02-26T13:35:58;16.20;55.80
37052;DHT22;22964;52.272;13.356;2024-02-26T13:38:25;16.20;55.80
37052;DHT22;22964;52.272;13.356;2024-02-26T13:40:51;16.20;55.90
37052;DHT22;22964;52.272;13.356;2024-02-26T13:43:17;16.20;55.90
37052;DHT22;22964;52.272;13.356;2024-02-26T13:45:43;16.20;55.90
37052;DHT22;22964;52.272;13.356;2024-02-26T13:48:10;16.10;55.70
37052;DHT22;22964;52.272;13.356;2024-02-26T13:50:37;16.10;55.80
37052;DHT22;22964;52.272;13.356;2024-02-26T13:53:03;16.10;55.80
37052;DHT22;22964;52.272;13.356;2024-02-26T13:55:30;16.10;55.60
37052;DHT22;22964;52.272;13.356;2024-02-26T13:57:58;16.10;55.40
37052;DHT22;22964;52.272;13.356;2024-02-26T14:00:26;16.00;55.50
37052;DHT22;22964;52.272;13.356;2024-02-26T14:02:52;16.10;55.80
37052;DHT22;22964;52.272;13.356;2024-02-26T14:05:17;16.00;55.80
37052;DHT22;22964;52.272;13.356;2024-02-26T14:07:43;16.00;55.80
37052;DHT22;22964;52.272;13.356;2024-02-26T14:10:11;16.00;56.00
37052;DHT22;22964;52.272;13.356;2024-02-26T14:12:38;16.00;56.50
37052;DHT22;22964;52.272;13.356;2024-02-26T14:15:06;16.00;56.00
37052;DHT22;22964;52.272;13.356;2024-02-26T14:17:32;16.00;56.10
37052;DHT22;22964;52.272;13.356;2024-02-26T14:19:58;15.90;56.00
37052;DHT22;22964;52.272;13.356;2024-02-26T14:22:24;15.90;56.00
37052;DHT22;22964;52.272;13.356;2024-02-26T14:24:51;15.90;56.10
37052;DHT22;22964;52.272;13.356;2024-02-26T14:27:18;15.80;56.00
37052;DHT22;22964;52.272;13.356;2024-02-26T14:29:46;15.80;56.10
37052;DHT22;22964;52.272;13.356;2024-02-26T14:32:12;15.80;56.10
37052;DHT22;22964;52.272;13.356;2024-02-26T14:34:38;15.70;56.00
37052;DHT22;22964;52.272;13.356;2024-02-26T14:37:04;15.70;56.10
37052;DHT22;22964;52.272;13.356;2024-02-26T14:39:33;15.60;56.10
37052;DHT22;22964;52.272;13.356;2024-02-26T14:41:59;15.60;56.20
37052;DHT22;22964;52.272;13.356;2024-02-26T14:44:25;15.50;56.20
37052;DHT22;22964;52.272;13.356;2024-02-26T14:46:52;15.50;56.40
37052;DHT22;22964;52.272;13.356;2024-02-26T14:49:17;15.40;56.50
37052;DHT22;22964;52.272;13.356;2024-02-26T14:51:44;15.40;56.80
37052;DHT22;22964;52.272;13.356;2024-02-26T14:54:13;15.30;56.80
37052;DHT22;22964;52.272;13.356;2024-02-26T14:56:39;15.30;56.90
37052;DHT22;22964;52.272;13.356;2024-02-26T14:59:06;15.20;56.90
37052;DHT22;22964;52.272;13.356;2024-02-26T15:01:32;15.20;57.00
37052;DHT22;22964;52.272;13.356;2024-02-26T15:03:58;15.10;57.00
37052;DHT22;22964;52.272;13.356;2024-02-26T15:06:24;15.10;57.10
37052;DHT22;22964;52.272;13.356;2024-02-26T15:08:51;15.10;57.20
37052;DHT22;22964;52.272;13.356;2024-02-26T15:11:16;15.10;57.30
37052;DHT22;22964;52.272;13.356;2024-02-26T15:13:42;15.10;57.40
37052;DHT22;22964;52.272;13.356;2024-02-26T15:16:08;15.00;57.50
37052;DHT22;22964;52.272;13.356;2024-02-26T15:18:36;15.00;57.60
37052;DHT22;22964;52.272;13.356;2024-02-26T15:21:02;15.00;57.70
37052;DHT22;22964;52.272;13.356;2024-02-26T15:23:28;15.00;57.70
37052;DHT22;22964;52.272;13.356;2024-02-26T15:25:54;15.00;58.50